19:35
Airports
History
Links
Donate
Help keep this website running!
PayPal
Bitcoin
Information on this page is community maintained and may be outdated or inaccurate and is intended for reference only or PC simulator navigating.
Always use approved charts for navigating.
LICC
Catania Fontanarossa
Catania Fontanarossa (LICC)
Catania, Sicily, Italy (95121)
(C)
Lat/Lng:37° 28' 0.4" N / 15° 3' 59.04" E
37.466779 / 15.066401
Elevation:39'ft 12mMSL
ID / ICAO:LICC
Runways:1
Longest:(08-26) 2,430.1m 7,973ft Asphalt
Controlled:Yes
Distance To
Airport ID:
Airport Radio Frequencies
Ground: 129.72
Tower: 118.7
Approach: 120.8
Nearby VORs <50NM
Nearby NDBs
METARUpdated 05-27-17 19:20 GMT
Altimeter: 30.03
Visibility: 6.2 statute miles
Wind: 5 knots (120°)
Temp: 21°c 70°f
Humidity: 64.3%

METAR: LICC 271920Z 12005KT 9999 BKN060 21/14 Q1017

(Powered by phpweather)
Runway 08 / 26
Dimensions:2430.1 x 45.1m 7973' x 148'ft
Surface:Asphalt
Edge Lights:Medium intensity
Runway 08 [A]Runway 26 [B]
Heading:083°TH 263°TH
Lat:
Lng:
37° 27' 56.25"N
15° 3' 9.7"E
37° 28' 4.56"N
15° 4' 48.39"E
TDZ:Yes, lighted
User Notes and Comments
Google Map
Nearby Airports
(C) SIGONELLA 9.1 NM
LICZ (WX) WSW 240°
(C) Magliocco 41.3 NM
LICB SW 217°
(C) Reggio Calabria 52.6 NM
LICR (WX) NE 37°
4 Vibo Valentia 97.1 NM
LIBJ NNE 33°
(U) BOCCADIFALCO 105.5 NM
LICP (WX) WNW 294°
(C) La Valette Luqa 116.5 NM
LMML (WX) SSW 196°
(C) PALERMO 117.8 NM
LICJ (WX) WNW 294°
VFR Chart
Flight Planning at SkyVector.com